sensor_id;sensor_type;location;lat;lon;timestamp;pressure;altitude;pressure_sealevel;temperature;humidity
15382;BME280;7789;51.364;12.358;2022-10-16T00:02:11;99981.13;;;17.40;100.00
15382;BME280;7789;51.364;12.358;2022-10-16T00:07:46;99972.72;;;17.37;100.00
15382;BME280;7789;51.364;12.358;2022-10-16T00:12:59;99975.06;;;17.32;100.00
15382;BME280;7789;51.364;12.358;2022-10-16T00:18:30;99974.72;;;17.35;100.00
15382;BME280;7789;51.364;12.358;2022-10-16T00:23:36;99982.97;;;17.32;100.00
15382;BME280;7789;51.364;12.358;2022-10-16T00:28:52;99996.34;;;17.38;100.00
15382;BME280;7789;51.364;12.358;2022-10-16T00:34:23;99994.78;;;17.44;100.00
15382;BME280;7789;51.364;12.358;2022-10-16T00:39:29;99995.72;;;17.51;100.00
15382;BME280;7789;51.364;12.358;2022-10-16T00:44:45;100013.22;;;17.52;100.00
15382;BME280;7789;51.364;12.358;2022-10-16T00:50:00;100001.19;;;17.49;100.00
15382;BME280;7789;51.364;12.358;2022-10-16T00:55:10;100008.66;;;17.46;100.00
15382;BME280;7789;51.364;12.358;2022-10-16T01:00:29;100002.53;;;17.45;100.00
15382;BME280;7789;51.364;12.358;2022-10-16T01:05:43;100002.28;;;17.40;100.00
15382;BME280;7789;51.364;12.358;2022-10-16T01:10:55;99998.63;;;17.41;100.00
15382;BME280;7789;51.364;12.358;2022-10-16T01:16:07;99995.16;;;17.41;100.00
15382;BME280;7789;51.364;12.358;2022-10-16T01:21:22;100007.06;;;17.37;100.00
15382;BME280;7789;51.364;12.358;2022-10-16T01:27:01;100009.06;;;17.35;100.00
15382;BME280;7789;51.364;12.358;2022-10-16T01:32:16;100011.72;;;17.35;100.00
15382;BME280;7789;51.364;12.358;2022-10-16T01:37:35;100013.53;;;17.34;100.00
15382;BME280;7789;51.364;12.358;2022-10-16T01:42:48;100023.78;;;17.29;100.00
15382;BME280;7789;51.364;12.358;2022-10-16T01:47:59;100030.06;;;17.28;100.00
15382;BME280;7789;51.364;12.358;2022-10-16T01:53:24;100033.72;;;17.27;100.00
15382;BME280;7789;51.364;12.358;2022-10-16T01:58:36;100039.16;;;17.26;100.00
15382;BME280;7789;51.364;12.358;2022-10-16T02:03:49;100036.06;;;17.22;100.00
15382;BME280;7789;51.364;12.358;2022-10-16T02:08:56;100023.22;;;17.19;100.00
15382;BME280;7789;51.364;12.358;2022-10-16T02:14:24;100018.09;;;17.18;100.00
15382;BME280;7789;51.364;12.358;2022-10-16T02:19:33;100010.31;;;17.16;100.00
15382;BME280;7789;51.364;12.358;2022-10-16T02:24:42;100045.00;;;17.21;100.00
15382;BME280;7789;51.364;12.358;2022-10-16T02:30:10;100035.88;;;17.24;100.00
15382;BME280;7789;51.364;12.358;2022-10-16T02:35:32;100061.16;;;17.18;100.00
15382;BME280;7789;51.364;12.358;2022-10-16T02:40:44;100054.38;;;17.24;100.00
15382;BME280;7789;51.364;12.358;2022-10-16T02:46:22;100055.38;;;17.23;100.00
15382;BME280;7789;51.364;12.358;2022-10-16T02:51:38;100047.16;;;17.18;100.00
15382;BME280;7789;51.364;12.358;2022-10-16T02:56:55;100051.97;;;17.14;100.00
15382;BME280;7789;51.364;12.358;2022-10-16T03:02:21;100040.38;;;17.15;100.00
15382;BME280;7789;51.364;12.358;2022-10-16T03:07:34;100058.06;;;17.15;100.00
15382;BME280;7789;51.364;12.358;2022-10-16T03:12:48;100052.31;;;17.11;100.00
15382;BME280;7789;51.364;12.358;2022-10-16T03:18:00;100066.53;;;17.10;100.00
15382;BME280;7789;51.364;12.358;2022-10-16T03:23:22;100054.31;;;17.09;100.00
15382;BME280;7789;51.364;12.358;2022-10-16T03:28:34;100059.59;;;17.09;100.00
15382;BME280;7789;51.364;12.358;2022-10-16T03:33:44;100087.00;;;17.08;100.00
15382;BME280;7789;51.364;12.358;2022-10-16T03:38:51;100081.53;;;17.10;100.00
15382;BME280;7789;51.364;12.358;2022-10-16T03:44:06;100082.53;;;17.09;100.00
15382;BME280;7789;51.364;12.358;2022-10-16T03:49:16;100069.50;;;17.07;100.00
15382;BME280;7789;51.364;12.358;2022-10-16T03:54:24;100060.94;;;17.05;100.00
15382;BME280;7789;51.364;12.358;2022-10-16T03:59:30;100054.81;;;17.05;100.00
15382;BME280;7789;51.364;12.358;2022-10-16T04:04:39;100068.69;;;17.07;100.00
15382;BME280;7789;51.364;12.358;2022-10-16T04:09:51;100066.22;;;17.05;100.00
15382;BME280;7789;51.364;12.358;2022-10-16T04:15:03;100067.88;;;17.06;100.00
15382;BME280;7789;51.364;12.358;2022-10-16T04:20:30;100053.47;;;17.09;100.00
15382;BME280;7789;51.364;12.358;2022-10-16T04:25:50;100078.25;;;17.08;100.00
15382;BME280;7789;51.364;12.358;2022-10-16T04:31:03;100088.34;;;17.04;100.00
15382;BME280;7789;51.364;12.358;2022-10-16T04:36:24;100097.94;;;16.97;100.00
15382;BME280;7789;51.364;12.358;2022-10-16T04:41:45;100098.47;;;16.93;100.00
15382;BME280;7789;51.364;12.358;2022-10-16T04:47:01;100108.72;;;16.88;100.00
15382;BME280;7789;51.364;12.358;2022-10-16T04:52:12;100112.38;;;16.87;100.00
15382;BME280;7789;51.364;12.358;2022-10-16T04:57:26;100124.56;;;16.88;100.00
15382;BME280;7789;51.364;12.358;2022-10-16T05:02:38;100130.03;;;16.86;100.00
15382;BME280;7789;51.364;12.358;2022-10-16T05:07:45;100145.88;;;16.86;100.00
15382;BME280;7789;51.364;12.358;2022-10-16T05:12:52;100142.41;;;16.86;100.00
15382;BME280;7789;51.364;12.358;2022-10-16T05:18:08;100137.63;;;16.81;100.00
15382;BME280;7789;51.364;12.358;2022-10-16T05:23:31;100142.75;;;16.83;100.00
15382;BME280;7789;51.364;12.358;2022-10-16T05:28:42;100149.53;;;16.85;100.00
15382;BME280;7789;51.364;12.358;2022-10-16T05:33:57;100146.69;;;16.87;100.00
15382;BME280;7789;51.364;12.358;2022-10-16T05:39:09;100153.63;;;16.88;100.00
15382;BME280;7789;51.364;12.358;2022-10-16T05:44:15;100146.53;;;16.88;100.00
15382;BME280;7789;51.364;12.358;2022-10-16T05:49:26;100150.81;;;16.89;100.00
15382;BME280;7789;51.364;12.358;2022-10-16T05:54:44;100166.47;;;16.91;100.00
15382;BME280;7789;51.364;12.358;2022-10-16T06:00:23;100175.88;;;16.93;100.00
15382;BME280;7789;51.364;12.358;2022-10-16T06:05:38;100181.47;;;16.98;100.00
15382;BME280;7789;51.364;12.358;2022-10-16T06:11:02;100181.47;;;17.06;100.00
15382;BME280;7789;51.364;12.358;2022-10-16T06:16:09;100186.41;;;17.09;100.00
15382;BME280;7789;51.364;12.358;2022-10-16T06:21:18;100196.91;;;17.17;100.00
15382;BME280;7789;51.364;12.358;2022-10-16T06:26:29;100194.06;;;17.27;100.00
15382;BME280;7789;51.364;12.358;2022-10-16T06:31:54;100195.41;;;17.31;100.00
15382;BME280;7789;51.364;12.358;2022-10-16T06:37:16;100211.75;;;17.34;100.00
15382;BME280;7789;51.364;12.358;2022-10-16T06:42:25;100217.34;;;17.39;100.00
15382;BME280;7789;51.364;12.358;2022-10-16T06:47:32;100225.41;;;17.46;100.00
15382;BME280;7789;51.364;12.358;2022-10-16T06:52:41;100222.44;;;17.49;100.00
15382;BME280;7789;51.364;12.358;2022-10-16T06:57:49;100229.16;;;17.51;100.00
15382;BME280;7789;51.364;12.358;2022-10-16T07:02:53;100229.66;;;17.55;100.00
15382;BME280;7789;51.364;12.358;2022-10-16T07:08:00;100227.31;;;17.60;100.00
15382;BME280;7789;51.364;12.358;2022-10-16T07:13:16;100216.34;;;17.71;100.00
15382;BME280;7789;51.364;12.358;2022-10-16T07:18:31;100171.34;;;17.79;100.00
15382;BME280;7789;51.364;12.358;2022-10-16T07:23:49;100204.97;;;17.93;100.00
15382;BME280;7789;51.364;12.358;2022-10-16T07:29:27;100233.66;;;18.04;100.00
15382;BME280;7789;51.364;12.358;2022-10-16T07:34:48;100252.66;;;18.07;100.00
15382;BME280;7789;51.364;12.358;2022-10-16T07:40:14;100246.81;;;18.12;100.00
15382;BME280;7789;51.364;12.358;2022-10-16T07:45:26;100255.06;;;18.17;100.00
15382;BME280;7789;51.364;12.358;2022-10-16T07:50:39;100261.59;;;18.29;100.00
15382;BME280;7789;51.364;12.358;2022-10-16T07:55:54;100265.72;;;18.54;100.00
15382;BME280;7789;51.364;12.358;2022-10-16T08:01:07;100268.03;;;18.71;100.00
15382;BME280;7789;51.364;12.358;2022-10-16T08:06:13;100277.78;;;18.93;100.00
15382;BME280;7789;51.364;12.358;2022-10-16T08:11:37;100277.19;;;19.34;100.00
15382;BME280;7789;51.364;12.358;2022-10-16T08:16:43;100292.69;;;19.81;100.00
15382;BME280;7789;51.364;12.358;2022-10-16T08:21:56;100304.00;;;20.25;100.00
15382;BME280;7789;51.364;12.358;2022-10-16T08:27:00;100304.66;;;20.48;99.08
15382;BME280;7789;51.364;12.358;2022-10-16T08:32:14;100308.97;;;20.49;96.62
15382;BME280;7789;51.364;12.358;2022-10-16T08:37:29;100308.59;;;20.52;94.49
15382;BME280;7789;51.364;12.358;2022-10-16T08:42:51;100318.13;;;20.67;93.91
15382;BME280;7789;51.364;12.358;2022-10-16T08:48:14;100331.44;;;20.88;92.58
15382;BME280;7789;51.364;12.358;2022-10-16T08:53:27;100332.00;;;20.83;91.81
15382;BME280;7789;51.364;12.358;2022-10-16T08:58:48;100335.34;;;20.92;91.39
15382;BME280;7789;51.364;12.358;2022-10-16T09:09:59;100352.06;;;21.41;88.91
15382;BME280;7789;51.364;12.358;2022-10-16T09:15:28;100357.81;;;21.72;87.77
15382;BME280;7789;51.364;12.358;2022-10-16T09:20:40;100352.97;;;21.88;85.98
15382;BME280;7789;51.364;12.358;2022-10-16T09:25:50;100359.91;;;21.83;83.82
15382;BME280;7789;51.364;12.358;2022-10-16T09:30:59;100365.84;;;21.85;83.89
15382;BME280;7789;51.364;12.358;2022-10-16T09:36:05;100371.81;;;21.87;82.80
15382;BME280;7789;51.364;12.358;2022-10-16T09:41:19;100371.47;;;21.96;82.15
15382;BME280;7789;51.364;12.358;2022-10-16T09:46:28;100374.03;;;22.24;81.13
15382;BME280;7789;51.364;12.358;2022-10-16T09:51:36;100378.19;;;22.39;80.97
15382;BME280;7789;51.364;12.358;2022-10-16T09:56:50;100382.09;;;22.43;79.48
15382;BME280;7789;51.364;12.358;2022-10-16T10:02:03;100390.75;;;22.58;78.82
15382;BME280;7789;51.364;12.358;2022-10-16T10:07:42;100383.13;;;22.42;78.71
15382;BME280;7789;51.364;12.358;2022-10-16T10:13:20;100401.38;;;22.52;78.60
15382;BME280;7789;51.364;12.358;2022-10-16T10:18:57;100410.25;;;22.65;78.32
15382;BME280;7789;51.364;12.358;2022-10-16T10:24:15;100411.69;;;22.67;77.78
15382;BME280;7789;51.364;12.358;2022-10-16T10:29:30;100408.84;;;22.75;77.47
15382;BME280;7789;51.364;12.358;2022-10-16T10:34:51;100412.72;;;22.67;77.35
15382;BME280;7789;51.364;12.358;2022-10-16T10:40:06;100398.16;;;22.63;77.55
15382;BME280;7789;51.364;12.358;2022-10-16T10:45:41;100411.44;;;22.50;77.16
15382;BME280;7789;51.364;12.358;2022-10-16T10:51:07;100410.34;;;22.38;77.61
15382;BME280;7789;51.364;12.358;2022-10-16T10:57:00;100419.34;;;22.37;77.66
15382;BME280;7789;51.364;12.358;2022-10-16T11:02:25;100414.69;;;22.39;77.67
15382;BME280;7789;51.364;12.358;2022-10-16T11:07:37;100411.19;;;22.38;77.80
15382;BME280;7789;51.364;12.358;2022-10-16T11:12:48;100413.06;;;22.44;77.77
15382;BME280;7789;51.364;12.358;2022-10-16T11:18:18;100421.88;;;22.45;77.61
15382;BME280;7789;51.364;12.358;2022-10-16T11:23:37;100423.75;;;22.51;78.11
15382;BME280;7789;51.364;12.358;2022-10-16T11:29:03;100416.59;;;22.58;77.66
15382;BME280;7789;51.364;12.358;2022-10-16T11:34:41;100418.03;;;22.60;77.51
15382;BME280;7789;51.364;12.358;2022-10-16T11:40:03;100431.59;;;22.71;77.55
15382;BME280;7789;51.364;12.358;2022-10-16T11:45:23;100425.25;;;22.73;78.14
15382;BME280;7789;51.364;12.358;2022-10-16T11:50:34;100433.47;;;22.77;78.66
15382;BME280;7789;51.364;12.358;2022-10-16T11:55:48;100435.50;;;22.75;78.18
15382;BME280;7789;51.364;12.358;2022-10-16T12:01:11;100446.19;;;22.75;77.84
15382;BME280;7789;51.364;12.358;2022-10-16T12:06:34;100442.06;;;22.73;77.34
15382;BME280;7789;51.364;12.358;2022-10-16T12:11:43;100446.16;;;22.69;78.03
15382;BME280;7789;51.364;12.358;2022-10-16T12:16:59;100437.75;;;22.72;77.96
15382;BME280;7789;51.364;12.358;2022-10-16T12:22:28;100442.88;;;22.67;78.58
15382;BME280;7789;51.364;12.358;2022-10-16T12:27:55;100446.13;;;22.63;79.25
15382;BME280;7789;51.364;12.358;2022-10-16T12:38:31;100458.16;;;22.46;79.17
15382;BME280;7789;51.364;12.358;2022-10-16T12:43:46;100459.78;;;22.40;79.63
15382;BME280;7789;51.364;12.358;2022-10-16T12:49:20;100461.66;;;22.46;79.13
15382;BME280;7789;51.364;12.358;2022-10-16T12:54:47;100468.41;;;22.42;79.10
15382;BME280;7789;51.364;12.358;2022-10-16T13:00:00;100467.16;;;22.38;79.24
15382;BME280;7789;51.364;12.358;2022-10-16T13:05:27;100470.66;;;22.39;78.46
15382;BME280;7789;51.364;12.358;2022-10-16T13:10:58;100462.44;;;22.40;78.74
15382;BME280;7789;51.364;12.358;2022-10-16T13:16:19;100474.28;;;22.38;78.37
15382;BME280;7789;51.364;12.358;2022-10-16T13:21:45;100472.00;;;22.28;78.69
15382;BME280;7789;51.364;12.358;2022-10-16T13:27:07;100469.72;;;22.25;78.74
15382;BME280;7789;51.364;12.358;2022-10-16T13:32:27;100475.00;;;22.19;78.40
15382;BME280;7789;51.364;12.358;2022-10-16T13:37:45;100478.47;;;22.13;78.93
15382;BME280;7789;51.364;12.358;2022-10-16T13:43:02;100486.66;;;22.11;78.95
15382;BME280;7789;51.364;12.358;2022-10-16T13:48:16;100486.44;;;22.06;78.92
15382;BME280;7789;51.364;12.358;2022-10-16T13:53:27;100506.03;;;21.99;79.27
15382;BME280;7789;51.364;12.358;2022-10-16T13:58:44;100507.28;;;21.96;79.38
15382;BME280;7789;51.364;12.358;2022-10-16T14:03:59;100507.47;;;21.95;79.29
15382;BME280;7789;51.364;12.358;2022-10-16T14:09:24;100519.38;;;21.99;79.61
15382;BME280;7789;51.364;12.358;2022-10-16T14:14:57;100522.25;;;21.97;79.88
15382;BME280;7789;51.364;12.358;2022-10-16T14:20:05;100514.88;;;21.99;79.76
15382;BME280;7789;51.364;12.358;2022-10-16T14:25:24;100518.56;;;21.98;80.16
15382;BME280;7789;51.364;12.358;2022-10-16T14:30:53;100517.72;;;21.98;80.72
15382;BME280;7789;51.364;12.358;2022-10-16T14:36:03;100519.19;;;22.00;80.32
15382;BME280;7789;51.364;12.358;2022-10-16T14:41:19;100521.16;;;21.92;80.41
15382;BME280;7789;51.364;12.358;2022-10-16T14:46:32;100535.25;;;21.86;80.94
15382;BME280;7789;51.364;12.358;2022-10-16T14:51:44;100527.41;;;21.78;81.01
15382;BME280;7789;51.364;12.358;2022-10-16T14:56:58;100528.19;;;21.72;81.17
15382;BME280;7789;51.364;12.358;2022-10-16T15:07:52;100531.22;;;21.48;82.37
15382;BME280;7789;51.364;12.358;2022-10-16T15:13:21;100535.66;;;21.41;82.53
15382;BME280;7789;51.364;12.358;2022-10-16T15:18:27;100541.69;;;21.28;83.43
15382;BME280;7789;51.364;12.358;2022-10-16T15:23:48;100538.31;;;21.20;84.20
15382;BME280;7789;51.364;12.358;2022-10-16T15:28:55;100548.44;;;21.10;84.51
15382;BME280;7789;51.364;12.358;2022-10-16T15:34:09;100562.03;;;21.00;85.50
15382;BME280;7789;51.364;12.358;2022-10-16T15:39:27;100573.56;;;21.07;86.19
15382;BME280;7789;51.364;12.358;2022-10-16T15:44:43;100576.22;;;21.07;85.64
15382;BME280;7789;51.364;12.358;2022-10-16T15:49:55;100581.53;;;21.07;86.23
15382;BME280;7789;51.364;12.358;2022-10-16T15:55:05;100589.34;;;21.09;86.59
15382;BME280;7789;51.364;12.358;2022-10-16T16:00:13;100596.84;;;21.05;86.37
15382;BME280;7789;51.364;12.358;2022-10-16T16:05:26;100599.44;;;20.99;86.97
15382;BME280;7789;51.364;12.358;2022-10-16T16:10:40;100597.97;;;20.82;87.89
15382;BME280;7789;51.364;12.358;2022-10-16T16:15:58;100595.59;;;20.72;88.32
15382;BME280;7789;51.364;12.358;2022-10-16T16:21:24;100606.34;;;20.65;88.46
15382;BME280;7789;51.364;12.358;2022-10-16T16:26:38;100601.09;;;20.57;89.19
15382;BME280;7789;51.364;12.358;2022-10-16T16:31:50;100606.88;;;20.46;89.46
15382;BME280;7789;51.364;12.358;2022-10-16T16:37:11;100628.84;;;20.40;89.88
15382;BME280;7789;51.364;12.358;2022-10-16T16:42:32;100624.75;;;20.37;90.29
15382;BME280;7789;51.364;12.358;2022-10-16T16:47:38;100635.16;;;20.24;90.80
15382;BME280;7789;51.364;12.358;2022-10-16T16:52:48;100646.69;;;20.17;91.61
15382;BME280;7789;51.364;12.358;2022-10-16T16:57:59;100662.22;;;20.05;91.90
15382;BME280;7789;51.364;12.358;2022-10-16T17:03:10;100673.03;;;19.96;92.31
15382;BME280;7789;51.364;12.358;2022-10-16T17:08:23;100684.56;;;19.88;93.59
15382;BME280;7789;51.364;12.358;2022-10-16T17:13:44;100680.25;;;19.87;93.55
15382;BME280;7789;51.364;12.358;2022-10-16T17:19:10;100698.34;;;19.84;94.25
15382;BME280;7789;51.364;12.358;2022-10-16T17:24:29;100701.84;;;19.84;94.49
15382;BME280;7789;51.364;12.358;2022-10-16T17:29:39;100707.94;;;19.85;95.44
15382;BME280;7789;51.364;12.358;2022-10-16T17:34:50;100714.44;;;19.82;96.02
15382;BME280;7789;51.364;12.358;2022-10-16T17:40:13;100703.66;;;19.84;97.20
15382;BME280;7789;51.364;12.358;2022-10-16T17:45:36;100714.63;;;19.81;97.48
15382;BME280;7789;51.364;12.358;2022-10-16T17:50:52;100709.66;;;19.78;97.87
15382;BME280;7789;51.364;12.358;2022-10-16T17:56:19;100714.84;;;19.71;98.70
15382;BME280;7789;51.364;12.358;2022-10-16T18:01:40;100707.56;;;19.65;99.23
15382;BME280;7789;51.364;12.358;2022-10-16T18:06:54;100712.94;;;19.57;99.70
15382;BME280;7789;51.364;12.358;2022-10-16T18:12:00;100734.88;;;19.51;99.55
15382;BME280;7789;51.364;12.358;2022-10-16T18:17:14;100733.38;;;19.49;100.00
15382;BME280;7789;51.364;12.358;2022-10-16T18:22:41;100734.88;;;19.43;99.90
15382;BME280;7789;51.364;12.358;2022-10-16T18:27:56;100743.03;;;19.42;100.00
15382;BME280;7789;51.364;12.358;2022-10-16T18:33:03;100749.66;;;19.38;100.00
15382;BME280;7789;51.364;12.358;2022-10-16T18:38:19;100746.19;;;19.37;100.00
15382;BME280;7789;51.364;12.358;2022-10-16T18:43:25;100760.09;;;19.39;100.00
15382;BME280;7789;51.364;12.358;2022-10-16T18:48:36;100748.50;;;19.40;100.00
15382;BME280;7789;51.364;12.358;2022-10-16T18:53:44;100755.81;;;19.38;100.00
15382;BME280;7789;51.364;12.358;2022-10-16T18:58:57;100756.16;;;19.35;100.00
15382;BME280;7789;51.364;12.358;2022-10-16T19:04:19;100754.97;;;19.38;100.00
15382;BME280;7789;51.364;12.358;2022-10-16T19:09:47;100761.91;;;19.39;100.00
15382;BME280;7789;51.364;12.358;2022-10-16T19:14:54;100761.28;;;19.37;100.00
15382;BME280;7789;51.364;12.358;2022-10-16T19:20:01;100761.09;;;19.38;100.00
15382;BME280;7789;51.364;12.358;2022-10-16T19:25:08;100773.38;;;19.39;100.00
15382;BME280;7789;51.364;12.358;2022-10-16T19:30:16;100779.31;;;19.41;100.00
15382;BME280;7789;51.364;12.358;2022-10-16T19:35:23;100781.16;;;19.41;100.00
15382;BME280;7789;51.364;12.358;2022-10-16T19:40:45;100791.28;;;19.37;100.00
15382;BME280;7789;51.364;12.358;2022-10-16T19:46:02;100793.94;;;19.37;100.00
15382;BME280;7789;51.364;12.358;2022-10-16T19:51:18;100791.44;;;19.36;100.00
15382;BME280;7789;51.364;12.358;2022-10-16T19:56:33;100805.53;;;19.36;100.00
15382;BME280;7789;51.364;12.358;2022-10-16T20:01:41;100813.50;;;19.36;100.00
15382;BME280;7789;51.364;12.358;2022-10-16T20:06:50;100824.91;;;19.37;100.00
15382;BME280;7789;51.364;12.358;2022-10-16T20:11:56;100827.91;;;19.34;100.00
15382;BME280;7789;51.364;12.358;2022-10-16T20:17:12;100846.16;;;19.29;100.00
15382;BME280;7789;51.364;12.358;2022-10-16T20:22:31;100850.97;;;19.25;100.00
15382;BME280;7789;51.364;12.358;2022-10-16T20:27:36;100849.81;;;19.20;100.00
15382;BME280;7789;51.364;12.358;2022-10-16T20:32:50;100846.31;;;19.11;100.00
15382;BME280;7789;51.364;12.358;2022-10-16T20:38:11;100840.38;;;19.09;100.00
15382;BME280;7789;51.364;12.358;2022-10-16T20:43:33;100823.50;;;19.02;100.00
15382;BME280;7789;51.364;12.358;2022-10-16T20:48:42;100837.75;;;19.01;100.00
15382;BME280;7789;51.364;12.358;2022-10-16T20:53:53;100855.63;;;18.99;100.00
15382;BME280;7789;51.364;12.358;2022-10-16T20:59:02;100857.94;;;18.94;100.00
15382;BME280;7789;51.364;12.358;2022-10-16T21:04:10;100872.84;;;18.87;100.00
15382;BME280;7789;51.364;12.358;2022-10-16T21:09:32;100868.22;;;18.81;100.00
15382;BME280;7789;51.364;12.358;2022-10-16T21:14:42;100871.38;;;18.77;100.00
15382;BME280;7789;51.364;12.358;2022-10-16T21:20:15;100872.38;;;18.76;100.00
15382;BME280;7789;51.364;12.358;2022-10-16T21:25:30;100871.53;;;18.75;100.00
15382;BME280;7789;51.364;12.358;2022-10-16T21:30:36;100879.81;;;18.73;100.00
15382;BME280;7789;51.364;12.358;2022-10-16T21:35:42;100867.22;;;18.74;100.00
15382;BME280;7789;51.364;12.358;2022-10-16T21:40:52;100861.78;;;18.76;100.00
15382;BME280;7789;51.364;12.358;2022-10-16T21:46:13;100859.78;;;18.78;100.00
15382;BME280;7789;51.364;12.358;2022-10-16T21:51:29;100861.59;;;18.77;100.00
15382;BME280;7789;51.364;12.358;2022-10-16T21:56:35;100862.44;;;18.78;100.00
15382;BME280;7789;51.364;12.358;2022-10-16T22:01:53;100865.22;;;18.76;100.00
15382;BME280;7789;51.364;12.358;2022-10-16T22:07:12;100863.44;;;18.77;100.00
15382;BME280;7789;51.364;12.358;2022-10-16T22:12:27;100878.47;;;18.76;100.00
15382;BME280;7789;51.364;12.358;2022-10-16T22:17:34;100886.09;;;18.72;100.00
15382;BME280;7789;51.364;12.358;2022-10-16T22:22:43;100879.47;;;18.68;100.00
15382;BME280;7789;51.364;12.358;2022-10-16T22:27:52;100871.53;;;18.68;100.00
15382;BME280;7789;51.364;12.358;2022-10-16T22:33:02;100873.84;;;18.71;100.00
15382;BME280;7789;51.364;12.358;2022-10-16T22:38:14;100868.88;;;18.68;100.00
15382;BME280;7789;51.364;12.358;2022-10-16T22:43:25;100861.28;;;18.65;100.00
15382;BME280;7789;51.364;12.358;2022-10-16T22:48:31;100862.41;;;18.62;100.00
15382;BME280;7789;51.364;12.358;2022-10-16T22:53:44;100869.19;;;18.57;100.00
15382;BME280;7789;51.364;12.358;2022-10-16T22:58:54;100873.16;;;18.45;100.00
15382;BME280;7789;51.364;12.358;2022-10-16T23:04:20;100875.28;;;18.33;100.00
15382;BME280;7789;51.364;12.358;2022-10-16T23:09:25;100863.28;;;18.21;100.00
15382;BME280;7789;51.364;12.358;2022-10-16T23:14:54;100868.06;;;18.10;100.00
15382;BME280;7789;51.364;12.358;2022-10-16T23:20:03;100871.03;;;18.07;100.00
15382;BME280;7789;51.364;12.358;2022-10-16T23:25:13;100865.06;;;17.97;100.00
15382;BME280;7789;51.364;12.358;2022-10-16T23:30:26;100866.34;;;17.93;100.00
15382;BME280;7789;51.364;12.358;2022-10-16T23:35:39;100871.63;;;17.85;100.00
15382;BME280;7789;51.364;12.358;2022-10-16T23:40:43;100874.59;;;17.82;100.00
15382;BME280;7789;51.364;12.358;2022-10-16T23:46:16;100873.56;;;17.75;100.00
15382;BME280;7789;51.364;12.358;2022-10-16T23:51:21;100878.84;;;17.67;100.00
15382;BME280;7789;51.364;12.358;2022-10-16T23:56:30;100872.22;;;17.63;100.00
